Terminal Aerodrome Forecast
Issued by NWS Upton, NY

Current Version | Previous Version | Text Only | Print | Product List | Glossary On
Versions: 1 2 3 4 5 6 7 8 9 10 11 12 13 14 15 16 17 18 19 20 21 22 23 24 25 26 27 28 29
000
FTUS41 KOKX 270231 AAA
TAFEWR
TAF AMD
KEWR 270231Z 2703/2806 20011KT P6SM BKN250
     FM270400 22008KT P6SM BKN250
      TEMPO 2709/2712 SCT015
     FM271600 21012KT P6SM SCT040 BKN200
     FM271800 21015G21KT P6SM SCT040 BKN200
     FM280100 22013KT P6SM SCT040 BKN200
     FM280300 33007KT P6SM BKN200=

USA.gov is the U.S. government's official web portal to all federal, state and local government web resources and services.